Time;durP1;ratioP1;P1;durP2;ratioP2;P2;SDS_P1;SDS_P2;PMS_P1;PMS_P2;Temp;Humidity;BMP_temperature;BMP_pressure;BME280_temperature;BME280_humidity;BME280_pressure;Samples;Min_cycle;Max_cycle;Signal;HPM_P1;HPM_P2
2022/07/29 00:01:21;;;;;;;8.00;7.18;;;;;;;19.47;100.00;94638.25;5052718;28;20697;-62
2022/07/29 00:03:47;;;;;;;8.13;6.82;;;;;;;19.43;100.00;94648.16;5070570;28;20183;-62
2022/07/29 00:06:14;;;;;;;9.60;6.95;;;;;;;19.44;100.00;94649.75;5070546;28;20213;-62
2022/07/29 00:08:39;;;;;;;9.85;7.00;;;;;;;19.43;100.00;94657.66;5070591;28;20181;-64
2022/07/29 00:11:04;;;;;;;11.82;8.20;;;;;;;19.47;100.00;94671.78;5072012;28;20678;-61
2022/07/29 00:13:30;;;;;;;13.40;6.72;;;;;;;19.34;100.00;94661.31;5073927;28;20204;-61
2022/07/29 00:15:55;;;;;;;9.00;7.38;;;;;;;19.38;100.00;94659.97;5074307;28;20287;-62
2022/07/29 00:18:21;;;;;;;9.77;7.07;;;;;;;19.24;100.00;94664.97;5074130;28;20699;-62
2022/07/29 00:20:46;;;;;;;8.02;7.20;;;;;;;19.23;100.00;94657.41;5074100;28;20255;-63
2022/07/29 00:23:11;;;;;;;8.00;7.22;;;;;;;19.34;100.00;94662.13;5073993;28;20212;-62
2022/07/29 00:25:37;;;;;;;8.02;7.32;;;;;;;19.30;100.00;94671.19;5073830;28;20209;-63
2022/07/29 00:28:02;;;;;;;8.90;7.15;;;;;;;19.34;100.00;94664.72;5072446;28;20192;-64
2022/07/29 00:30:28;;;;;;;7.93;7.07;;;;;;;19.39;100.00;94666.75;5073749;28;20220;-62
2022/07/29 00:32:53;;;;;;;10.13;7.40;;;;;;;19.40;100.00;94663.16;5073826;28;20212;-62
2022/07/29 00:38:03;;;;;;;7.78;6.88;;;;;;;19.56;100.00;94656.00;5073814;28;20192;-62
2022/07/29 00:40:28;;;;;;;8.25;7.53;;;;;;;19.62;100.00;94657.84;5073816;28;20254;-62
2022/07/29 00:42:54;;;;;;;9.07;8.10;;;;;;;19.59;100.00;94657.41;5073610;28;20180;-64
2022/07/29 00:45:19;;;;;;;14.60;7.82;;;;;;;19.75;100.00;94673.47;5073607;28;20287;-61
2022/07/29 00:47:45;;;;;;;7.80;7.10;;;;;;;19.81;100.00;94672.72;5073673;28;20197;-64
2022/07/29 00:50:12;;;;;;;8.77;7.80;;;;;;;19.72;100.00;94666.06;5071982;28;20705;-64
2022/07/29 00:52:40;;;;;;;7.82;7.03;;;;;;;19.76;100.00;94674.22;5073442;28;20223;-62
2022/07/29 00:55:08;;;;;;;9.38;8.00;;;;;;;19.71;100.00;94666.25;5080666;22;20236;-62
2022/07/29 00:57:34;;;;;;;13.13;8.05;;;;;;;19.78;100.00;94664.53;5073284;28;20530;-62
2022/07/29 01:00:00;;;;;;;8.82;7.88;;;;;;;19.84;100.00;94674.91;5073326;28;20208;-62
2022/07/29 01:02:26;;;;;;;9.63;7.53;;;;;;;19.87;100.00;94676.31;5073476;28;20224;-64
2022/07/29 01:04:52;;;;;;;9.02;7.63;;;;;;;19.80;100.00;94667.72;5073316;28;20181;-64
2022/07/29 01:07:18;;;;;;;9.45;7.32;;;;;;;19.86;100.00;94670.34;5073294;28;20247;-63
2022/07/29 01:09:50;;;;;;;9.80;7.63;;;;;;;20.01;100.00;94665.94;5073173;28;20216;-60
2022/07/29 01:12:28;;;;;;;8.00;6.65;;;;;;;19.95;100.00;94655.56;5073172;28;20200;-62
2022/07/29 01:14:55;;;;;;;8.95;8.15;;;;;;;19.98;100.00;94655.97;5073156;28;20191;-62
2022/07/29 01:17:26;;;;;;;7.63;6.90;;;;;;;19.79;100.00;94654.03;5073042;28;20705;-62
2022/07/29 01:20:11;;;;;;;8.75;7.43;;;;;;;19.83;100.00;94647.53;5072887;28;20213;-59
2022/07/29 01:22:42;;;;;;;8.63;7.82;;;;;;;19.90;100.00;94653.53;5072158;28;20193;-64
2022/07/29 01:25:25;;;;;;;8.88;8.02;;;;;;;20.10;100.00;94662.22;5072891;28;20192;-60
2022/07/29 01:28:09;;;;;;;8.38;7.57;;;;;;;20.25;100.00;94679.44;5054692;28;20193;-62
2022/07/29 01:30:37;;;;;;;10.52;7.70;;;;;;;19.97;100.00;94641.47;5072724;28;20209;-61
2022/07/29 01:33:07;;;;;;;9.95;7.88;;;;;;;19.90;100.00;94640.63;5073393;28;20526;-62
2022/07/29 01:35:39;;;;;;;8.40;7.55;;;;;;;20.02;100.00;94653.81;5072835;28;20205;-60
2022/07/29 01:38:08;;;;;;;10.10;8.95;;;;;;;20.24;100.00;94657.19;5054977;28;20220;-60
2022/07/29 01:40:40;;;;;;;9.65;8.63;;;;;;;20.18;100.00;94648.34;5072733;28;20290;-64
2022/07/29 01:43:11;;;;;;;10.60;9.48;;;;;;;20.12;100.00;94638.00;5054775;28;20192;-64
2022/07/29 01:45:57;;;;;;;10.85;9.70;;;;;;;19.90;100.00;94616.59;5054508;28;20216;-63
2022/07/29 01:48:31;;;;;;;10.63;9.52;;;;;;;19.78;100.00;94628.41;5071118;28;20283;-62
2022/07/29 01:51:31;;;;;;;11.13;9.95;;;;;;;19.98;100.00;94632.75;5072348;28;20244;-60
2022/07/29 01:54:22;;;;;;;10.15;9.15;;;;;;;20.05;100.00;94635.38;5072632;28;20550;-62
2022/07/29 01:56:50;;;;;;;11.70;8.38;;;;;;;19.90;100.00;94632.06;5072248;28;20270;-61
2022/07/29 01:59:18;;;;;;;11.88;8.82;;;;;;;19.71;100.00;94625.78;5072469;28;20184;-63
2022/07/29 02:01:46;;;;;;;12.32;9.23;;;;;;;19.52;100.00;94628.19;5072159;28;20208;-63
2022/07/29 02:04:15;;;;;;;12.55;8.70;;;;;;;19.36;100.00;94616.34;5072489;28;20185;-61
2022/07/29 02:06:42;;;;;;;10.23;9.13;;;;;;;19.35;100.00;94612.19;5072222;28;20204;-62
2022/07/29 02:09:10;;;;;;;11.40;8.00;;;;;;;19.26;100.00;94610.66;5072317;28;20659;-62
2022/07/29 02:11:38;;;;;;;8.75;7.43;;;;;;;19.17;100.00;94611.75;5072274;28;20219;-62
2022/07/29 02:14:04;;;;;;;9.13;6.82;;;;;;;19.27;100.00;94607.09;5072551;28;20647;-62
2022/07/29 02:16:32;;;;;;;7.63;6.75;;;;;;;19.22;100.00;94622.31;5053971;28;20228;-62
2022/07/29 02:19:00;;;;;;;12.25;7.45;;;;;;;19.36;100.00;94616.34;5072467;28;20189;-61
2022/07/29 02:21:27;;;;;;;9.73;6.45;;;;;;;19.30;100.00;94614.47;5072044;28;20220;-60
2022/07/29 02:23:55;;;;;;;8.93;6.78;;;;;;;19.29;100.00;94616.22;5072317;28;20267;-61
2022/07/29 02:26:24;;;;;;;9.15;6.60;;;;;;;19.39;100.00;94625.50;5072046;28;20720;-62
2022/07/29 02:29:00;;;;;;;6.75;6.15;;;;;;;19.31;100.00;94618.63;5053934;28;20258;-60
2022/07/29 02:31:28;;;;;;;8.32;7.10;;;;;;;19.34;100.00;94623.47;5072011;28;20212;-65
2022/07/29 02:33:55;;;;;;;8.00;6.95;;;;;;;19.15;100.00;94619.66;5071989;28;20217;-62
2022/07/29 02:36:22;;;;;;;10.88;7.00;;;;;;;19.08;100.00;94613.66;5053984;28;20262;-61
2022/07/29 02:38:50;;;;;;;9.00;7.00;;;;;;;19.04;100.00;94609.03;5054203;28;20203;-62
2022/07/29 02:41:19;;;;;;;10.00;7.00;;;;;;;19.14;100.00;94601.81;5071354;28;20204;-62
2022/07/29 02:43:48;;;;;;;10.18;7.10;;;;;;;19.08;100.00;94597.38;5071933;28;20193;-62
2022/07/29 02:46:18;;;;;;;9.35;6.47;;;;;;;19.12;100.00;94596.84;5071667;28;20571;-61
2022/07/29 02:49:02;;;;;;;10.77;6.28;;;;;;;19.08;100.00;94597.38;5071962;28;20718;-61
2022/07/29 02:51:36;;;;;;;9.50;6.72;;;;;;;18.94;100.00;94582.78;5071561;28;20200;-61
2022/07/29 02:54:06;;;;;;;9.32;6.50;;;;;;;18.90;100.00;94591.84;5071645;28;20177;-59
2022/07/29 02:56:37;;;;;;;8.88;6.72;;;;;;;19.01;100.00;94596.50;5071474;28;20231;-60
2022/07/29 02:59:07;;;;;;;10.07;6.82;;;;;;;18.99;100.00;94593.31;5071813;28;20192;-62
2022/07/29 03:01:35;;;;;;;9.93;6.53;;;;;;;19.00;100.00;94600.88;5071506;28;20267;-62
2022/07/29 03:04:04;;;;;;;9.13;6.97;;;;;;;18.97;100.00;94605.56;5071744;28;20221;-64
2022/07/29 03:06:32;;;;;;;7.70;6.22;;;;;;;19.02;100.00;94603.28;5071187;28;20243;-64
2022/07/29 03:08:59;;;;;;;8.88;7.22;;;;;;;19.09;100.00;94601.53;5070110;28;20662;-63
2022/07/29 03:11:25;;;;;;;9.63;7.15;;;;;;;19.03;100.00;94597.94;5071174;28;20197;-62
2022/07/29 03:13:51;;;;;;;7.47;6.78;;;;;;;19.06;100.00;94595.00;5071279;28;20193;-62
2022/07/29 03:16:19;;;;;;;11.13;6.93;;;;;;;19.12;100.00;94589.13;5071105;28;20201;-64
2022/07/29 03:18:44;;;;;;;9.18;7.15;;;;;;;19.14;100.00;94600.03;5053135;28;20189;-61
2022/07/29 03:21:10;;;;;;;10.32;6.40;;;;;;;19.32;100.00;94603.97;5070940;28;20205;-62
2022/07/29 03:23:35;;;;;;;8.90;7.65;;;;;;;19.19;100.00;94596.88;5071453;28;20211;-61
2022/07/29 03:26:01;;;;;;;13.75;8.20;;;;;;;19.19;100.00;94605.44;5071061;28;20648;-61
2022/07/29 03:28:27;;;;;;;11.95;8.65;;;;;;;19.16;100.00;94592.13;5071038;28;20189;-63
2022/07/29 03:30:53;;;;;;;10.43;8.32;;;;;;;19.14;100.00;94601.81;5071046;28;20674;-63
2022/07/29 03:33:18;;;;;;;10.77;9.68;;;;;;;19.03;100.00;94603.09;5069837;28;20192;-63
2022/07/29 03:35:44;;;;;;;12.25;9.68;;;;;;;19.07;100.00;94599.16;5070841;28;20205;-62
2022/07/29 03:38:10;;;;;;;12.98;10.32;;;;;;;19.18;100.00;94595.31;5070994;28;20243;-62
2022/07/29 03:40:46;;;;;;;14.30;10.55;;;;;;;19.15;100.00;94596.47;5070657;28;20734;-66
2022/07/29 03:43:15;;;;;;;13.63;11.50;;;;;;;19.05;100.00;94608.03;5052904;28;20192;-62
2022/07/29 03:45:44;;;;;;;15.35;12.30;;;;;;;19.11;100.00;94607.31;5069918;28;20212;-63
2022/07/29 03:48:15;;;;;;;12.40;11.10;;;;;;;19.18;100.00;94610.78;5071128;28;20280;-64
2022/07/29 03:50:40;;;;;;;13.05;10.63;;;;;;;19.17;100.00;94614.31;5052793;28;20209;-63
2022/07/29 03:53:05;;;;;;;13.27;10.73;;;;;;;19.13;100.00;94618.25;5071010;28;20634;-65
2022/07/29 03:55:37;;;;;;;13.13;11.35;;;;;;;19.02;100.00;94616.16;5070475;28;20204;-63
2022/07/29 03:58:03;;;;;;;15.55;10.82;;;;;;;19.07;100.00;94622.34;5070806;28;20212;-63
2022/07/29 04:00:31;;;;;;;10.32;9.30;;;;;;;19.19;100.00;94622.66;5070409;28;20204;-62
2022/07/29 04:02:57;;;;;;;12.55;11.25;;;;;;;19.52;100.00;94621.25;5070494;28;20189;-61
2022/07/29 04:05:22;;;;;;;11.85;9.57;;;;;;;19.78;100.00;94616.31;5070543;28;20579;-60
2022/07/29 04:07:48;;;;;;;12.23;10.27;;;;;;;20.08;100.00;94635.78;5070518;28;20193;-60
2022/07/29 04:10:18;;;;;;;11.70;9.43;;;;;;;20.30;100.00;94633.19;5070494;28;20263;-65
2022/07/29 04:12:44;;;;;;;11.80;9.30;;;;;;;20.48;100.00;94643.84;5070850;28;20193;-61
2022/07/29 04:15:10;;;;;;;16.50;9.55;;;;;;;20.67;100.00;94646.50;5070479;28;20181;-64
2022/07/29 04:17:36;;;;;;;15.88;9.95;;;;;;;20.85;100.00;94657.13;5052514;28;20203;-61
2022/07/29 04:20:02;;;;;;;12.52;8.18;;;;;;;20.98;100.00;94687.41;5070193;28;20205;-62
2022/07/29 04:22:28;;;;;;;11.77;8.48;;;;;;;20.99;100.00;94641.69;5070360;28;20200;-61
2022/07/29 04:24:54;;;;;;;9.32;8.32;;;;;;;21.12;100.00;94660.66;5070189;28;20208;-62
2022/07/29 04:27:19;;;;;;;10.32;8.13;;;;;;;21.17;100.00;94697.06;5070060;28;20297;-62
2022/07/29 04:29:44;;;;;;;11.27;8.07;;;;;;;21.00;100.00;94667.34;5070102;28;20677;-61
2022/07/29 04:32:10;;;;;;;8.93;7.07;;;;;;;20.85;100.00;94667.47;5070178;28;20208;-64
2022/07/29 04:34:35;;;;;;;11.52;6.68;;;;;;;20.65;100.00;94627.00;5070284;28;20658;-61
2022/07/29 04:37:00;;;;;;;9.02;7.20;;;;;;;20.63;100.00;94641.91;5069897;28;20238;-64
2022/07/29 04:39:26;;;;;;;12.55;7.07;;;;;;;20.73;100.00;94663.84;5070280;28;20223;-63
2022/07/29 04:41:51;;;;;;;10.02;6.25;;;;;;;20.59;100.00;94677.66;5070088;28;20201;-61
2022/07/29 04:44:17;;;;;;;7.45;6.60;;;;;;;20.41;100.00;94651.53;5070360;28;20276;-64
2022/07/29 04:46:43;;;;;;;16.40;12.50;;;;;;;20.41;100.00;94641.19;5052106;28;20215;-63
2022/07/29 04:49:08;;;;;;;15.80;14.40;;;;;;;20.50;100.00;94631.53;5052029;28;20216;-64
2022/07/29 04:51:34;;;;;;;10.73;9.77;;;;;;;20.74;100.00;94620.72;5069800;28;20208;-62
2022/07/29 04:54:00;;;;;;;6.97;6.28;;;;;;;20.66;100.00;94657.03;5070407;28;20200;-64
2022/07/29 04:56:26;;;;;;;9.48;6.60;;;;;;;20.73;100.00;94643.16;5069855;28;20197;-64
2022/07/29 04:58:51;;;;;;;6.38;5.88;;;;;;;20.90;100.00;94643.63;5072793;28;20666;-60
2022/07/29 05:01:17;;;;;;;8.90;6.75;;;;;;;21.01;100.00;94705.13;5073039;28;20215;-60
2022/07/29 05:03:42;;;;;;;7.70;5.72;;;;;;;20.96;100.00;94699.75;5073157;28;20646;-60
2022/07/29 05:06:08;;;;;;;8.45;6.55;;;;;;;20.93;100.00;94663.91;5072931;28;20205;-59
2022/07/29 05:08:33;;;;;;;8.73;6.35;;;;;;;21.04;100.00;94660.03;5073238;28;20188;-63
2022/07/29 05:10:58;;;;;;;11.07;6.50;;;;;;;21.09;100.00;94704.97;5073092;28;20192;-59
2022/07/29 05:13:24;;;;;;;9.57;6.85;;;;;;;21.09;100.00;94673.97;5073296;28;20305;-61
2022/07/29 05:15:49;;;;;;;7.50;6.55;;;;;;;21.15;100.00;94727.47;5073229;28;20209;-62
2022/07/29 05:18:15;;;;;;;8.05;6.32;;;;;;;21.08;100.00;94658.66;5071656;28;20193;-60
2022/07/29 05:20:41;;;;;;;10.18;6.47;;;;;;;21.04;100.00;94701.38;5072828;28;20213;-62
2022/07/29 05:23:06;;;;;;;7.82;7.03;;;;;;;21.15;100.00;94706.03;5055032;28;20197;-63
2022/07/29 05:25:32;;;;;;;7.82;6.60;;;;;;;21.04;100.00;94686.69;5072710;28;20220;-64
2022/07/29 05:27:57;;;;;;;7.82;6.10;;;;;;;21.16;100.00;94708.41;5054995;28;20666;-64
2022/07/29 05:30:23;;;;;;;11.77;7.00;;;;;;;21.09;100.00;94693.88;5055103;28;20674;-63
2022/07/29 05:32:49;;;;;;;8.95;6.20;;;;;;;20.97;100.00;94680.63;5072659;28;20193;-64
2022/07/29 05:35:15;;;;;;;7.88;6.45;;;;;;;20.95;100.00;94672.28;5071295;28;20538;-63
2022/07/29 05:37:41;;;;;;;7.97;6.55;;;;;;;21.09;100.00;94679.13;5072567;28;20574;-60
2022/07/29 05:40:07;;;;;;;9.05;6.60;;;;;;;21.21;100.00;94687.91;5072547;28;20736;-61
2022/07/29 05:42:33;;;;;;;9.75;6.03;;;;;;;21.42;100.00;94711.09;5072414;28;20193;-61
2022/07/29 05:44:59;;;;;;;8.48;6.88;;;;;;;21.51;100.00;94720.25;5072441;28;20195;-60
2022/07/29 05:47:25;;;;;;;7.70;6.90;;;;;;;21.57;100.00;94731.63;5072240;28;20209;-61
2022/07/29 05:49:51;;;;;;;8.07;7.07;;;;;;;21.48;100.00;94743.94;5072266;28;20566;-62
2022/07/29 05:52:16;;;;;;;6.88;6.10;;;;;;;21.53;100.00;94645.03;5072039;28;20240;-60
2022/07/29 05:54:42;;;;;;;9.00;6.72;;;;;;;21.81;100.00;94647.47;5072133;28;20196;-61
2022/07/29 05:57:07;;;;;;;7.40;6.70;;;;;;;21.96;100.00;94736.91;5072290;28;20204;-60
2022/07/29 05:59:37;;;;;;;11.52;6.43;;;;;;;22.24;100.00;94762.66;5071892;28;20217;-61
2022/07/29 06:02:04;;;;;;;7.82;5.68;;;;;;;22.35;100.00;94729.19;5071868;28;20200;-60
2022/07/29 06:04:31;;;;;;;12.32;7.15;;;;;;;22.46;100.00;94762.25;5072035;28;20193;-60
2022/07/29 06:06:56;;;;;;;6.40;5.57;;;;;;;22.62;100.00;94747.34;5072061;28;20209;-60
2022/07/29 06:09:22;;;;;;;7.82;6.38;;;;;;;22.91;100.00;94776.22;5071842;28;20280;-61
2022/07/29 06:11:48;;;;;;;6.80;6.13;;;;;;;23.11;100.00;94784.75;5071988;28;20215;-63
2022/07/29 06:14:13;;;;;;;8.48;6.03;;;;;;;23.29;100.00;94776.34;5072128;28;20185;-60
2022/07/29 06:16:39;;;;;;;6.63;5.82;;;;;;;23.37;100.00;94812.47;5071991;28;20227;-60
2022/07/29 06:19:04;;;;;;;7.75;5.95;;;;;;;23.41;100.00;94786.91;5071867;28;20569;-61
2022/07/29 06:21:30;;;;;;;6.15;5.40;;;;;;;23.45;100.00;94786.28;5071650;28;20223;-61
2022/07/29 06:23:55;;;;;;;6.65;6.00;;;;;;;23.54;100.00;94792.84;5072122;28;20642;-61
2022/07/29 06:26:21;;;;;;;8.65;5.38;;;;;;;23.58;100.00;94785.44;5071511;28;20582;-62
2022/07/29 06:28:46;;;;;;;6.30;5.70;;;;;;;23.63;100.00;94802.00;5072368;28;20181;-61
2022/07/29 06:31:11;;;;;;;7.53;4.88;;;;;;;23.64;100.00;94813.16;5053586;28;20209;-62
2022/07/29 06:33:37;;;;;;;5.70;5.20;;;;;;;23.55;100.00;94767.69;5053733;28;20726;-63
2022/07/29 06:36:05;;;;;;;6.30;5.70;;;;;;;23.59;100.00;94764.47;5071666;28;20307;-62
2022/07/29 06:38:30;;;;;;;10.10;6.80;;;;;;;23.67;100.00;94786.81;5053678;28;20742;-60
2022/07/29 06:41:07;;;;;;;8.68;6.82;;;;;;;23.40;100.00;94775.72;5071477;28;20216;-60
2022/07/29 06:43:34;;;;;;;7.47;6.72;;;;;;;23.31;100.00;94740.59;5071908;28;20189;-59
2022/07/29 06:46:08;;;;;;;10.02;6.35;;;;;;;23.34;100.00;94751.38;5071550;28;20209;-63
2022/07/29 06:48:35;;;;;;;7.03;6.18;;;;;;;23.45;100.00;94752.56;5071916;28;20216;-60
2022/07/29 06:51:02;;;;;;;6.80;5.57;;;;;;;23.48;100.00;94756.50;5071480;28;20216;-61
2022/07/29 06:53:28;;;;;;;12.00;7.03;;;;;;;23.52;100.00;94742.94;5071811;28;20181;-61
2022/07/29 06:55:53;;;;;;;6.20;5.50;;;;;;;23.64;100.00;94751.66;5071332;28;20208;-60
2022/07/29 06:58:20;;;;;;;6.63;5.90;;;;;;;23.77;100.00;94750.78;5071599;28;20685;-63
2022/07/29 07:00:47;;;;;;;12.77;6.68;;;;;;;24.00;100.00;94798.59;5070051;28;20765;-62
2022/07/29 07:03:13;;;;;;;7.28;5.97;;;;;;;24.01;100.00;94773.44;5053336;28;20193;-69
2022/07/29 07:05:39;;;;;;;6.70;4.63;;;;;;;23.96;100.00;94822.59;5071488;28;20251;-61
2022/07/29 07:08:05;;;;;;;6.68;5.90;;;;;;;24.07;100.00;94786.44;5071433;28;20703;-61
2022/07/29 07:10:30;;;;;;;6.18;5.30;;;;;;;24.10;100.00;94822.38;5071311;28;20262;-60
2022/07/29 07:12:56;;;;;;;7.82;4.82;;;;;;;24.25;100.00;94840.28;5071528;28;20197;-63
2022/07/29 07:15:21;;;;;;;8.00;5.05;;;;;;;24.24;100.00;94822.31;5071018;28;20203;-64
2022/07/29 07:17:50;;;;;;;6.90;5.47;;;;;;;24.21;100.00;94800.13;5071498;28;20189;-61
2022/07/29 07:20:18;;;;;;;6.88;5.15;;;;;;;24.23;100.00;94813.69;5070368;28;20663;-64
2022/07/29 07:22:44;;;;;;;5.20;4.78;;;;;;;24.38;100.00;94849.81;5071218;28;20666;-62
2022/07/29 07:25:10;;;;;;;5.40;4.72;;;;;;;24.28;100.00;94829.44;5069683;28;20200;-62
2022/07/29 07:27:36;;;;;;;6.65;4.75;;;;;;;24.37;100.00;94836.00;5070956;28;20224;-65
2022/07/29 07:30:05;;;;;;;8.98;6.38;;;;;;;24.52;99.12;94853.91;5069606;28;20188;-62
2022/07/29 07:32:31;;;;;;;11.18;7.95;;;;;;;24.52;98.03;94854.72;5070889;28;20199;-63
2022/07/29 07:34:56;;;;;;;6.32;4.72;;;;;;;24.63;99.63;94830.63;5070969;28;20193;-63
2022/07/29 07:37:21;;;;;;;11.32;9.13;;;;;;;24.69;100.00;94806.38;5052956;28;20213;-62
2022/07/29 07:39:47;;;;;;;9.55;7.15;;;;;;;24.78;99.48;94818.16;5070958;28;20209;-64
2022/07/29 07:42:13;;;;;;;5.45;4.95;;;;;;;24.85;98.53;94834.47;5071150;28;20586;-63
2022/07/29 07:44:39;;;;;;;5.88;4.78;;;;;;;24.82;97.71;94847.13;5070982;28;20189;-64
2022/07/29 07:47:05;;;;;;;5.85;5.00;;;;;;;25.10;97.33;94844.06;5070764;28;20216;-63
2022/07/29 07:49:30;;;;;;;5.22;4.00;;;;;;;25.19;96.43;94863.63;5070875;28;20192;-63
2022/07/29 07:51:56;;;;;;;5.28;4.05;;;;;;;25.23;95.42;94872.59;5071028;28;20690;-63
2022/07/29 07:54:22;;;;;;;4.90;4.13;;;;;;;25.39;94.55;94872.03;5070477;28;20196;-63
2022/07/29 07:56:50;;;;;;;5.68;3.55;;;;;;;25.57;94.39;94880.69;5070664;28;20215;-62
2022/07/29 07:59:16;;;;;;;6.03;3.88;;;;;;;25.62;92.72;94911.28;5070906;28;20197;-62
2022/07/29 08:01:42;;;;;;;4.97;3.80;;;;;;;25.57;90.55;94939.81;5070730;28;20237;-61
2022/07/29 08:04:07;;;;;;;3.70;3.38;;;;;;;25.80;89.53;94942.56;5070835;28;20561;-61
2022/07/29 08:06:34;;;;;;;4.10;3.50;;;;;;;25.92;90.56;94917.38;5070499;28;20209;-64
2022/07/29 08:09:00;;;;;;;7.53;3.95;;;;;;;26.06;87.93;94947.50;5070705;28;20204;-64
2022/07/29 08:11:26;;;;;;;6.15;4.00;;;;;;;26.10;86.09;94942.69;5070690;28;20204;-64
2022/07/29 08:13:51;;;;;;;5.45;4.07;;;;;;;26.12;86.66;94920.59;5052480;28;20712;-65
2022/07/29 08:16:17;;;;;;;4.50;3.72;;;;;;;26.27;87.61;94901.97;5070626;28;20200;-64
2022/07/29 08:18:45;;;;;;;4.45;3.63;;;;;;;26.45;84.86;94947.06;5070890;28;20189;-61
2022/07/29 08:21:11;;;;;;;6.30;3.90;;;;;;;26.47;81.35;94952.84;5068934;28;20223;-61
2022/07/29 08:23:45;;;;;;;4.25;3.45;;;;;;;26.53;74.91;94938.13;5070539;28;20292;-64
2022/07/29 08:26:12;;;;;;;5.38;3.58;;;;;;;26.53;74.19;94907.63;5070530;28;20217;-61
2022/07/29 08:28:38;;;;;;;3.60;3.15;;;;;;;26.76;71.81;94955.72;5070651;28;20193;-64
2022/07/29 08:31:04;;;;;;;3.35;3.05;;;;;;;26.87;71.66;94934.06;5070408;28;20215;-64
2022/07/29 08:33:29;;;;;;;4.18;3.33;;;;;;;26.93;68.54;94993.22;5073916;28;20185;-64
2022/07/29 08:35:54;;;;;;;3.83;2.95;;;;;;;27.08;69.18;94968.31;5055761;28;20296;-63
2022/07/29 08:38:20;;;;;;;4.43;3.20;;;;;;;27.05;68.41;94973.97;5074038;28;20189;-64
2022/07/29 08:40:46;;;;;;;4.60;3.03;;;;;;;27.22;66.93;94989.78;5073570;28;20273;-65
2022/07/29 08:43:12;;;;;;;5.47;2.92;;;;;;;27.38;63.38;95051.84;5074156;28;20185;-61
2022/07/29 08:45:49;;;;;;;4.05;3.08;;;;;;;27.52;63.78;95031.56;5073562;28;20555;-65
2022/07/29 08:48:17;;;;;;;5.43;2.50;;;;;;;27.50;63.92;95003.03;5074203;28;20177;-62
2022/07/29 08:50:43;;;;;;;4.40;2.83;;;;;;;27.73;62.47;95049.31;5073515;28;20205;-63
2022/07/29 08:53:14;;;;;;;6.35;3.42;;;;;;;27.73;62.31;95029.22;5073674;28;20577;-61
2022/07/29 08:55:44;;;;;;;7.15;3.05;;;;;;;27.76;61.33;95039.19;5073599;28;20240;-64
2022/07/29 08:58:10;;;;;;;5.07;3.10;;;;;;;27.84;64.56;94957.03;5055931;28;20177;-61
2022/07/29 09:00:40;;;;;;;8.00;2.90;;;;;;;27.97;61.43;95015.16;5055465;28;20251;-63
2022/07/29 09:03:07;;;;;;;3.22;2.70;;;;;;;28.04;60.40;95010.59;5073293;28;20189;-65
2022/07/29 09:05:33;;;;;;;4.43;2.70;;;;;;;28.17;59.37;95039.13;5073239;28;20220;-64
2022/07/29 09:07:59;;;;;;;4.80;2.97;;;;;;;28.39;59.58;95012.34;5073155;28;20193;-63
2022/07/29 09:10:25;;;;;;;3.35;2.88;;;;;;;28.43;57.91;95060.59;5073086;28;20216;-64
2022/07/29 09:12:52;;;;;;;4.07;3.17;;;;;;;28.40;55.70;95090.63;5073214;28;20193;-63
2022/07/29 09:15:17;;;;;;;3.17;2.88;;;;;;;28.70;56.79;95051.25;5055266;28;20180;-63
2022/07/29 09:17:49;;;;;;;3.95;3.30;;;;;;;28.38;58.74;94998.50;5054985;28;20646;-63
2022/07/29 09:20:17;;;;;;;5.78;3.63;;;;;;;28.17;59.23;94994.66;5072986;28;20219;-64
2022/07/29 09:22:44;;;;;;;4.63;3.67;;;;;;;28.03;59.98;94967.19;5073107;28;20188;-63
2022/07/29 09:25:11;;;;;;;4.28;3.22;;;;;;;27.78;59.28;94986.69;5072845;28;20185;-63
2022/07/29 09:27:37;;;;;;;4.40;3.15;;;;;;;27.69;60.39;94956.72;5072881;28;20203;-65
2022/07/29 09:30:07;;;;;;;9.38;3.58;;;;;;;27.68;61.94;94914.09;5072735;28;20177;-64
2022/07/29 09:32:55;;;;;;;3.60;3.30;;;;;;;27.43;59.87;94961.34;5073058;28;20560;-61
2022/07/29 09:35:28;;;;;;;5.75;3.38;;;;;;;27.21;61.28;94913.25;5072845;28;20287;-63
2022/07/29 09:37:54;;;;;;;4.28;3.85;;;;;;;27.25;62.81;94890.91;5073016;28;20249;-61
2022/07/29 09:40:21;;;;;;;4.95;3.83;;;;;;;27.55;62.94;94875.16;5072413;28;20205;-66
2022/07/29 09:42:48;;;;;;;6.65;4.03;;;;;;;28.17;64.17;94861.28;5072019;28;20319;-64
2022/07/29 09:45:28;;;;;;;5.20;3.50;;;;;;;28.79;58.25;95013.19;5072536;28;20677;-64
2022/07/29 09:47:55;;;;;;;4.45;3.75;;;;;;;29.28;58.02;95012.56;5071498;28;20625;-64
2022/07/29 09:50:23;;;;;;;7.03;3.35;;;;;;;29.63;55.90;95060.31;5072666;28;20191;-63
2022/07/29 09:52:53;;;;;;;6.03;3.38;;;;;;;29.98;55.97;95038.34;5072604;28;20196;-64
2022/07/29 09:55:19;;;;;;;3.47;3.17;;;;;;;30.36;53.42;95112.63;5072601;28;20185;-65
2022/07/29 09:57:46;;;;;;;3.83;3.47;;;;;;;30.17;51.95;95113.91;5072723;28;20192;-65
2022/07/29 10:00:14;;;;;;;4.32;3.70;;;;;;;30.29;52.07;95104.16;5072272;28;20232;-65
2022/07/29 10:02:41;;;;;;;4.53;3.78;;;;;;;30.31;54.42;95031.22;5072324;28;20250;-64
2022/07/29 10:05:19;;;;;;;4.03;3.60;;;;;;;30.62;53.06;95062.06;5072477;28;20650;-64
2022/07/29 10:07:56;;;;;;;3.17;2.88;;;;;;;30.30;50.54;95115.44;5071281;28;20198;-63
2022/07/29 10:10:25;;;;;;;3.83;3.28;;;;;;;30.59;51.72;95056.50;5072393;28;20713;-64
2022/07/29 10:13:03;;;;;;;5.22;3.13;;;;;;;30.82;51.37;95072.03;5072583;28;20276;-65
2022/07/29 10:15:31;;;;;;;6.80;3.47;;;;;;;31.10;50.12;95089.47;5072326;28;20204;-63
2022/07/29 10:17:58;;;;;;;3.83;3.40;;;;;;;31.06;50.08;95075.22;5054354;28;20200;-66
2022/07/29 10:20:26;;;;;;;5.93;3.70;;;;;;;30.48;51.81;95020.69;5072023;28;20219;-63
2022/07/29 10:22:52;;;;;;;6.82;3.80;;;;;;;30.24;53.13;94969.44;5072373;28;20197;-62
2022/07/29 10:25:19;;;;;;;4.97;3.55;;;;;;;29.77;55.17;94916.63;5072003;28;20181;-65
2022/07/29 10:27:46;;;;;;;5.90;4.90;;;;;;;30.14;53.48;94964.06;5071915;28;20199;-63
2022/07/29 10:30:13;;;;;;;5.05;3.72;;;;;;;30.77;52.24;94995.81;5054036;28;20205;-61
2022/07/29 10:32:57;;;;;;;5.30;3.53;;;;;;;31.02;50.45;95046.03;5071213;28;20193;-61
2022/07/29 10:35:47;;;;;;;3.65;3.45;;;;;;;31.26;46.69;95099.91;5071859;28;20236;-62
2022/07/29 10:38:24;;;;;;;5.38;3.20;;;;;;;31.88;46.87;95067.88;5072252;28;20696;-63
2022/07/29 10:43:46;;;;;;;5.07;3.38;;;;;;;32.61;46.70;95054.69;5072341;28;20250;-62
2022/07/29 10:46:14;;;;;;;3.22;3.03;;;;;;;32.79;45.55;95022.63;5070412;28;20624;-62
2022/07/29 10:49:04;;;;;;;6.22;3.45;;;;;;;33.19;43.15;95042.28;5071720;28;20189;-61
2022/07/29 10:51:57;;;;;;;3.70;3.28;;;;;;;33.10;43.65;95009.56;5071609;28;20209;-61
2022/07/29 10:54:45;;;;;;;3.60;3.30;;;;;;;33.15;43.65;94977.97;5071911;28;20246;-64
2022/07/29 10:57:28;;;;;;;4.00;3.10;;;;;;;33.20;40.95;95046.50;5044915;22;20301;-65
2022/07/29 11:00:08;;;;;;;5.80;3.25;;;;;;;33.08;42.17;94980.03;5031685;28;20746;-64
2022/07/29 11:02:34;;;;;;;4.53;3.63;;;;;;;33.22;42.59;94975.84;5012175;28;20699;-64
2022/07/29 11:05:06;;;;;;;4.57;3.50;;;;;;;33.61;40.52;95012.03;5011768;28;20191;-66
2022/07/29 11:07:36;;;;;;;3.80;3.45;;;;;;;33.83;41.94;94982.72;5012252;28;20230;-64
2022/07/29 11:10:14;;;;;;;3.47;3.17;;;;;;;33.81;40.72;94996.19;5011935;28;20568;-65
2022/07/29 11:12:42;;;;;;;3.80;2.83;;;;;;;33.63;40.40;94994.09;5011845;28;20186;-64
2022/07/29 11:15:17;;;;;;;5.38;3.42;;;;;;;34.26;39.74;95005.88;5011676;28;20190;-65
2022/07/29 11:17:56;;;;;;;5.78;4.03;;;;;;;34.65;39.58;94990.19;5011701;28;20190;-64
2022/07/29 11:20:47;;;;;;;6.40;3.95;;;;;;;34.77;38.60;94995.94;5010092;28;20704;-64
2022/07/29 11:23:38;;;;;;;3.80;3.50;;;;;;;34.77;37.28;95022.38;4993899;28;20215;-63
2022/07/29 11:26:09;;;;;;;5.68;3.33;;;;;;;34.70;38.61;94989.38;5012073;28;20272;-63
2022/07/29 11:28:53;;;;;;;4.50;3.78;;;;;;;34.81;37.53;95004.16;5010300;28;20729;-65
2022/07/29 11:31:38;;;;;;;3.58;3.28;;;;;;;34.26;38.35;94978.72;5011719;28;20215;-64
2022/07/29 11:34:29;;;;;;;3.83;3.53;;;;;;;34.51;39.69;94929.25;5011375;28;20198;-64
2022/07/29 11:37:06;;;;;;;3.90;3.60;;;;;;;34.48;37.57;94979.19;5011485;28;20219;-63
2022/07/29 11:39:42;;;;;;;5.25;4.13;;;;;;;34.54;38.67;94959.63;5010115;28;20197;-65